Sjorring, Denmark
Current Conditions -  °F | °C
As of 8:26 AM on Wednesday 22 Oct 2014 (Local Time) from EKYT Reporting Station
Drizzle Drizzle  
Wind Chill: 54°   Ceiling: 1500
Heat Index: 54°   Visibility: 2.5mi
Dew Point: 54°   Wind: 12mph
Humidity: 100%   Direction: 80°E
Pressure: 29.59"   Gusts: NA
Location:  56.95°N, 8.6°E
Report Text: EKYT 220626Z 08010KT 4000 -DZ BR SCT008 BKN015 12/12 Q1002
Loading
Personal Weather Stations






























Interactive Weather Map
Tropical Storm Tracking
New forecast layout! Learn more

10-Day Weather Forecast

Advertisements
Track Severe Weather on mobile